sensor_id;sensor_type;location;lat;lon;timestamp;pressure;altitude;pressure_sealevel;temperature;humidity
77626;BME280;66794;43.764;10.436;2023-10-09T00:02:28;103545.41;;;18.71;100.00
77626;BME280;66794;43.764;10.436;2023-10-09T00:05:15;103528.94;;;18.71;100.00
77626;BME280;66794;43.764;10.436;2023-10-09T00:08:09;103525.84;;;18.74;100.00
77626;BME280;66794;43.764;10.436;2023-10-09T00:10:54;103536.06;;;18.63;100.00
77626;BME280;66794;43.764;10.436;2023-10-09T00:13:41;103528.59;;;18.74;100.00
77626;BME280;66794;43.764;10.436;2023-10-09T00:16:46;103516.38;;;18.68;100.00
77626;BME280;66794;43.764;10.436;2023-10-09T00:19:41;103484.50;;;18.75;100.00
77626;BME280;66794;43.764;10.436;2023-10-09T00:22:29;103458.34;;;18.63;100.00
77626;BME280;66794;43.764;10.436;2023-10-09T00:25:16;103449.03;;;18.82;100.00
77626;BME280;66794;43.764;10.436;2023-10-09T00:28:09;103439.75;;;18.83;100.00
77626;BME280;66794;43.764;10.436;2023-10-09T00:30:55;103445.44;;;18.81;100.00
77626;BME280;66794;43.764;10.436;2023-10-09T00:33:44;103440.44;;;18.77;100.00
77626;BME280;66794;43.764;10.436;2023-10-09T00:36:30;103421.59;;;18.56;100.00
77626;BME280;66794;43.764;10.436;2023-10-09T00:39:19;103439.66;;;18.66;100.00
77626;BME280;66794;43.764;10.436;2023-10-09T00:42:26;103418.19;;;18.28;100.00
77626;BME280;66794;43.764;10.436;2023-10-09T00:45:22;103408.59;;;18.32;100.00
77626;BME280;66794;43.764;10.436;2023-10-09T00:48:14;103442.03;;;18.61;100.00
77626;BME280;66794;43.764;10.436;2023-10-09T00:51:08;103436.66;;;18.52;100.00
77626;BME280;66794;43.764;10.436;2023-10-09T00:54:05;103459.16;;;18.81;100.00
77626;BME280;66794;43.764;10.436;2023-10-09T00:56:53;103457.22;;;18.74;100.00
77626;BME280;66794;43.764;10.436;2023-10-09T00:59:44;103461.84;;;18.73;100.00
77626;BME280;66794;43.764;10.436;2023-10-09T01:02:34;103471.13;;;18.80;100.00
77626;BME280;66794;43.764;10.436;2023-10-09T01:05:28;103484.19;;;18.78;100.00
77626;BME280;66794;43.764;10.436;2023-10-09T01:08:14;103480.91;;;18.75;100.00
77626;BME280;66794;43.764;10.436;2023-10-09T01:11:14;103507.78;;;18.97;100.00
77626;BME280;66794;43.764;10.436;2023-10-09T01:14:11;103498.53;;;18.98;100.00
77626;BME280;66794;43.764;10.436;2023-10-09T01:16:57;103508.84;;;19.04;100.00
77626;BME280;66794;43.764;10.436;2023-10-09T01:19:43;103507.50;;;19.08;100.00
77626;BME280;66794;43.764;10.436;2023-10-09T01:22:30;103521.94;;;19.18;100.00
77626;BME280;66794;43.764;10.436;2023-10-09T01:25:15;103506.47;;;19.09;100.00
77626;BME280;66794;43.764;10.436;2023-10-09T01:28:01;103505.97;;;19.14;100.00
77626;BME280;66794;43.764;10.436;2023-10-09T01:30:47;103483.09;;;19.05;100.00
77626;BME280;66794;43.764;10.436;2023-10-09T01:33:33;103520.03;;;19.11;100.00
77626;BME280;66794;43.764;10.436;2023-10-09T01:36:21;103525.34;;;19.12;100.00
77626;BME280;66794;43.764;10.436;2023-10-09T01:39:16;103543.06;;;19.18;100.00
77626;BME280;66794;43.764;10.436;2023-10-09T01:42:09;103541.84;;;19.12;100.00
77626;BME280;66794;43.764;10.436;2023-10-09T01:44:56;103554.41;;;19.15;100.00
77626;BME280;66794;43.764;10.436;2023-10-09T01:47:44;103580.84;;;19.16;100.00
77626;BME280;66794;43.764;10.436;2023-10-09T01:50:40;103581.88;;;19.15;100.00
77626;BME280;66794;43.764;10.436;2023-10-09T01:53:28;103600.09;;;19.24;100.00
77626;BME280;66794;43.764;10.436;2023-10-09T01:56:15;103602.13;;;19.14;100.00
77626;BME280;66794;43.764;10.436;2023-10-09T01:59:01;103612.28;;;19.22;100.00
77626;BME280;66794;43.764;10.436;2023-10-09T02:01:51;103613.63;;;19.17;100.00
77626;BME280;66794;43.764;10.436;2023-10-09T02:04:40;103627.63;;;19.32;100.00
77626;BME280;66794;43.764;10.436;2023-10-09T02:07:28;103615.06;;;19.30;100.00
77626;BME280;66794;43.764;10.436;2023-10-09T02:10:15;103621.97;;;19.34;100.00
77626;BME280;66794;43.764;10.436;2023-10-09T02:13:16;103609.22;;;19.25;100.00
77626;BME280;66794;43.764;10.436;2023-10-09T02:16:07;103629.72;;;19.38;100.00
77626;BME280;66794;43.764;10.436;2023-10-09T02:19:13;103618.88;;;19.37;100.00
77626;BME280;66794;43.764;10.436;2023-10-09T02:22:17;103634.19;;;19.39;100.00
77626;BME280;66794;43.764;10.436;2023-10-09T02:25:03;103617.38;;;19.42;100.00
77626;BME280;66794;43.764;10.436;2023-10-09T02:27:50;103604.59;;;19.25;100.00
77626;BME280;66794;43.764;10.436;2023-10-09T02:30:39;103639.34;;;19.42;100.00
77626;BME280;66794;43.764;10.436;2023-10-09T02:33:26;103634.34;;;19.38;100.00
77626;BME280;66794;43.764;10.436;2023-10-09T02:36:16;103637.47;;;19.43;100.00
77626;BME280;66794;43.764;10.436;2023-10-09T02:39:02;103639.00;;;19.37;100.00
77626;BME280;66794;43.764;10.436;2023-10-09T02:41:55;103641.53;;;19.31;100.00
77626;BME280;66794;43.764;10.436;2023-10-09T02:44:47;103658.41;;;19.36;100.00
77626;BME280;66794;43.764;10.436;2023-10-09T02:47:35;103673.50;;;19.40;100.00
77626;BME280;66794;43.764;10.436;2023-10-09T02:50:25;103671.97;;;19.37;100.00
77626;BME280;66794;43.764;10.436;2023-10-09T02:53:13;103685.72;;;19.45;100.00
77626;BME280;66794;43.764;10.436;2023-10-09T02:56:04;103686.75;;;19.44;100.00
77626;BME280;66794;43.764;10.436;2023-10-09T02:58:58;103687.81;;;19.43;100.00
77626;BME280;66794;43.764;10.436;2023-10-09T03:01:51;103707.41;;;19.49;100.00
77626;BME280;66794;43.764;10.436;2023-10-09T03:04:38;103707.91;;;19.44;100.00
77626;BME280;66794;43.764;10.436;2023-10-09T03:07:24;103684.50;;;19.40;100.00
77626;BME280;66794;43.764;10.436;2023-10-09T03:10:10;103704.59;;;19.40;100.00
77626;BME280;66794;43.764;10.436;2023-10-09T03:12:56;103714.31;;;19.27;100.00
77626;BME280;66794;43.764;10.436;2023-10-09T03:15:46;103731.19;;;19.32;100.00
77626;BME280;66794;43.764;10.436;2023-10-09T03:18:33;103730.16;;;19.33;100.00
77626;BME280;66794;43.764;10.436;2023-10-09T03:21:20;103754.84;;;19.51;100.00
77626;BME280;66794;43.764;10.436;2023-10-09T03:24:05;103744.50;;;19.44;100.00
77626;BME280;66794;43.764;10.436;2023-10-09T03:26:53;103753.56;;;19.37;100.00
77626;BME280;66794;43.764;10.436;2023-10-09T03:29:41;103759.75;;;19.39;100.00
77626;BME280;66794;43.764;10.436;2023-10-09T03:32:27;103760.47;;;19.41;100.00
77626;BME280;66794;43.764;10.436;2023-10-09T03:35:13;103758.03;;;19.38;100.00
77626;BME280;66794;43.764;10.436;2023-10-09T03:38:02;103774.25;;;19.49;100.00
77626;BME280;66794;43.764;10.436;2023-10-09T03:40:57;103752.44;;;19.48;100.00
77626;BME280;66794;43.764;10.436;2023-10-09T03:43:43;103739.38;;;19.50;100.00
77626;BME280;66794;43.764;10.436;2023-10-09T03:46:31;103729.88;;;19.44;100.00
77626;BME280;66794;43.764;10.436;2023-10-09T03:49:22;103731.28;;;19.48;100.00
77626;BME280;66794;43.764;10.436;2023-10-09T03:52:11;103716.31;;;19.42;100.00
77626;BME280;66794;43.764;10.436;2023-10-09T03:54:57;103700.78;;;19.33;100.00
77626;BME280;66794;43.764;10.436;2023-10-09T03:57:43;103722.22;;;19.56;100.00
77626;BME280;66794;43.764;10.436;2023-10-09T04:00:31;103723.69;;;19.68;100.00
77626;BME280;66794;43.764;10.436;2023-10-09T04:03:20;103708.75;;;19.70;100.00
77626;BME280;66794;43.764;10.436;2023-10-09T04:06:06;103674.16;;;19.60;100.00
77626;BME280;66794;43.764;10.436;2023-10-09T04:08:55;103659.94;;;19.64;100.00
77626;BME280;66794;43.764;10.436;2023-10-09T04:11:41;103640.19;;;19.69;100.00
77626;BME280;66794;43.764;10.436;2023-10-09T04:14:31;103627.31;;;19.78;100.00
77626;BME280;66794;43.764;10.436;2023-10-09T04:17:21;103618.91;;;19.79;100.00
77626;BME280;66794;43.764;10.436;2023-10-09T04:20:19;103598.44;;;19.74;100.00
77626;BME280;66794;43.764;10.436;2023-10-09T04:23:05;103603.59;;;19.77;100.00
77626;BME280;66794;43.764;10.436;2023-10-09T04:25:51;103596.88;;;19.63;100.00
77626;BME280;66794;43.764;10.436;2023-10-09T04:28:37;103609.75;;;19.70;100.00
77626;BME280;66794;43.764;10.436;2023-10-09T04:31:23;103597.28;;;19.50;100.00
77626;BME280;66794;43.764;10.436;2023-10-09T04:34:21;103622.56;;;19.54;100.00
77626;BME280;66794;43.764;10.436;2023-10-09T04:37:07;103627.81;;;19.31;100.00
77626;BME280;66794;43.764;10.436;2023-10-09T04:39:59;103649.16;;;19.11;100.00
77626;BME280;66794;43.764;10.436;2023-10-09T04:42:57;103685.88;;;19.10;100.00
77626;BME280;66794;43.764;10.436;2023-10-09T04:45:43;103703.41;;;18.91;100.00
77626;BME280;66794;43.764;10.436;2023-10-09T04:48:30;103741.88;;;18.91;100.00
77626;BME280;66794;43.764;10.436;2023-10-09T04:51:23;103728.63;;;18.69;100.00
77626;BME280;66794;43.764;10.436;2023-10-09T04:54:09;103763.88;;;18.73;100.00
77626;BME280;66794;43.764;10.436;2023-10-09T04:57:18;103796.84;;;18.63;100.00
77626;BME280;66794;43.764;10.436;2023-10-09T05:00:05;103835.94;;;18.48;100.00
77626;BME280;66794;43.764;10.436;2023-10-09T05:03:10;103881.78;;;18.37;100.00
77626;BME280;66794;43.764;10.436;2023-10-09T05:05:57;103964.81;;;18.49;100.00
77626;BME280;66794;43.764;10.436;2023-10-09T05:09:05;104019.41;;;18.43;100.00
77626;BME280;66794;43.764;10.436;2023-10-09T05:11:54;104080.09;;;18.49;100.00
77626;BME280;66794;43.764;10.436;2023-10-09T05:14:45;104129.94;;;18.35;100.00
77626;BME280;66794;43.764;10.436;2023-10-09T05:17:51;104219.78;;;18.43;100.00
77626;BME280;66794;43.764;10.436;2023-10-09T05:20:41;104280.75;;;18.27;100.00
77626;BME280;66794;43.764;10.436;2023-10-09T05:23:41;104358.06;;;18.51;100.00
77626;BME280;66794;43.764;10.436;2023-10-09T05:26:55;104367.88;;;18.44;100.00
77626;BME280;66794;43.764;10.436;2023-10-09T05:30:01;104406.88;;;18.38;100.00
77626;BME280;66794;43.764;10.436;2023-10-09T05:32:58;104411.56;;;18.26;100.00
77626;BME280;66794;43.764;10.436;2023-10-09T05:35:44;104412.63;;;18.35;100.00
77626;BME280;66794;43.764;10.436;2023-10-09T05:38:49;104393.81;;;18.30;100.00
77626;BME280;66794;43.764;10.436;2023-10-09T05:41:45;104366.22;;;18.32;100.00
77626;BME280;66794;43.764;10.436;2023-10-09T05:44:37;104308.72;;;18.21;100.00
77626;BME280;66794;43.764;10.436;2023-10-09T05:47:41;104294.75;;;18.33;100.00
77626;BME280;66794;43.764;10.436;2023-10-09T05:50:39;104281.78;;;18.45;100.00
77626;BME280;66794;43.764;10.436;2023-10-09T05:53:45;104256.75;;;18.48;100.00
77626;BME280;66794;43.764;10.436;2023-10-09T05:56:31;104265.16;;;18.56;100.00
77626;BME280;66794;43.764;10.436;2023-10-09T05:59:35;104236.41;;;18.41;100.00
77626;BME280;66794;43.764;10.436;2023-10-09T06:02:39;104231.66;;;18.43;100.00
77626;BME280;66794;43.764;10.436;2023-10-09T06:05:44;104226.88;;;18.45;100.00
77626;BME280;66794;43.764;10.436;2023-10-09T06:08:39;104206.06;;;18.43;100.00
77626;BME280;66794;43.764;10.436;2023-10-09T06:11:27;104219.06;;;18.50;100.00
77626;BME280;66794;43.764;10.436;2023-10-09T06:14:20;104229.75;;;18.63;100.00
77626;BME280;66794;43.764;10.436;2023-10-09T06:17:15;104230.94;;;18.80;100.00
77626;BME280;66794;43.764;10.436;2023-10-09T06:20:09;104206.91;;;18.62;100.00
77626;BME280;66794;43.764;10.436;2023-10-09T06:23:15;104224.28;;;18.82;100.00
77626;BME280;66794;43.764;10.436;2023-10-09T06:26:01;104208.69;;;18.83;100.00
77626;BME280;66794;43.764;10.436;2023-10-09T06:29:06;104199.94;;;18.97;100.00
77626;BME280;66794;43.764;10.436;2023-10-09T06:32:06;104198.38;;;19.04;100.00
77626;BME280;66794;43.764;10.436;2023-10-09T06:35:05;104176.97;;;18.98;100.00
77626;BME280;66794;43.764;10.436;2023-10-09T06:38:15;104186.16;;;19.16;100.00
77626;BME280;66794;43.764;10.436;2023-10-09T06:41:09;104168.38;;;19.21;100.00
77626;BME280;66794;43.764;10.436;2023-10-09T06:44:20;104149.22;;;19.29;100.00
77626;BME280;66794;43.764;10.436;2023-10-09T06:47:25;104147.72;;;19.44;100.00
77626;BME280;66794;43.764;10.436;2023-10-09T06:50:11;104109.34;;;19.25;100.00
77626;BME280;66794;43.764;10.436;2023-10-09T06:53:06;104120.69;;;19.39;100.00
77626;BME280;66794;43.764;10.436;2023-10-09T06:55:52;104127.97;;;19.58;100.00
77626;BME280;66794;43.764;10.436;2023-10-09T06:58:37;104121.16;;;19.62;100.00
77626;BME280;66794;43.764;10.436;2023-10-09T07:01:33;104079.31;;;19.41;100.00
77626;BME280;66794;43.764;10.436;2023-10-09T07:04:28;104078.69;;;19.75;100.00
77626;BME280;66794;43.764;10.436;2023-10-09T07:07:16;104075.34;;;19.89;100.00
77626;BME280;66794;43.764;10.436;2023-10-09T07:10:07;104020.53;;;19.69;100.00
77626;BME280;66794;43.764;10.436;2023-10-09T07:13:14;104019.56;;;19.79;100.00
77626;BME280;66794;43.764;10.436;2023-10-09T07:16:03;104008.38;;;19.98;100.00
77626;BME280;66794;43.764;10.436;2023-10-09T07:19:17;103955.69;;;19.85;100.00
77626;BME280;66794;43.764;10.436;2023-10-09T07:22:26;103930.00;;;20.02;100.00
77626;BME280;66794;43.764;10.436;2023-10-09T07:25:24;103920.13;;;20.17;100.00
77626;BME280;66794;43.764;10.436;2023-10-09T07:28:26;103900.22;;;20.23;100.00
77626;BME280;66794;43.764;10.436;2023-10-09T07:31:21;103889.66;;;20.45;100.00
77626;BME280;66794;43.764;10.436;2023-10-09T07:34:12;103874.22;;;20.52;100.00
77626;BME280;66794;43.764;10.436;2023-10-09T07:37:16;103853.41;;;20.66;100.00
77626;BME280;66794;43.764;10.436;2023-10-09T07:40:05;103833.09;;;20.59;100.00
77626;BME280;66794;43.764;10.436;2023-10-09T07:42:53;103828.97;;;20.63;100.00
77626;BME280;66794;43.764;10.436;2023-10-09T07:45:50;103781.56;;;20.43;100.00
77626;BME280;66794;43.764;10.436;2023-10-09T07:48:35;103797.84;;;20.79;100.00
77626;BME280;66794;43.764;10.436;2023-10-09T07:51:35;103781.31;;;20.79;100.00
77626;BME280;66794;43.764;10.436;2023-10-09T07:54:21;103766.66;;;20.70;100.00
77626;BME280;66794;43.764;10.436;2023-10-09T07:57:21;103772.53;;;20.75;100.00
77626;BME280;66794;43.764;10.436;2023-10-09T08:00:14;103759.63;;;20.84;100.00
77626;BME280;66794;43.764;10.436;2023-10-09T08:03:19;103751.22;;;20.93;100.00
77626;BME280;66794;43.764;10.436;2023-10-09T08:06:12;103733.47;;;21.04;100.00
77626;BME280;66794;43.764;10.436;2023-10-09T08:09:17;103711.41;;;21.04;100.00
77626;BME280;66794;43.764;10.436;2023-10-09T08:12:03;103722.41;;;21.20;100.00
77626;BME280;66794;43.764;10.436;2023-10-09T08:15:20;103679.31;;;21.19;100.00
77626;BME280;66794;43.764;10.436;2023-10-09T08:18:06;103653.63;;;21.43;100.00
77626;BME280;66794;43.764;10.436;2023-10-09T08:21:04;103668.53;;;21.65;100.00
77626;BME280;66794;43.764;10.436;2023-10-09T08:23:49;103646.81;;;21.62;100.00
77626;BME280;66794;43.764;10.436;2023-10-09T08:26:35;103618.47;;;21.76;100.00
77626;BME280;66794;43.764;10.436;2023-10-09T08:29:32;103604.72;;;21.68;100.00
77626;BME280;66794;43.764;10.436;2023-10-09T08:32:20;103603.28;;;21.81;100.00
77626;BME280;66794;43.764;10.436;2023-10-09T08:35:23;103569.59;;;21.85;100.00
77626;BME280;66794;43.764;10.436;2023-10-09T08:38:17;103553.84;;;21.94;100.00
77626;BME280;66794;43.764;10.436;2023-10-09T08:41:10;103550.66;;;22.05;100.00
77626;BME280;66794;43.764;10.436;2023-10-09T08:44:03;103528.22;;;22.08;100.00
77626;BME280;66794;43.764;10.436;2023-10-09T08:46:49;103499.91;;;22.14;100.00
77626;BME280;66794;43.764;10.436;2023-10-09T08:49:35;103496.22;;;22.37;100.00
77626;BME280;66794;43.764;10.436;2023-10-09T08:52:23;103400.97;;;22.03;100.00
77626;BME280;66794;43.764;10.436;2023-10-09T08:55:10;103448.53;;;22.43;100.00
77626;BME280;66794;43.764;10.436;2023-10-09T08:57:56;103417.28;;;22.13;100.00
77626;BME280;66794;43.764;10.436;2023-10-09T09:00:44;103411.78;;;22.27;100.00
77626;BME280;66794;43.764;10.436;2023-10-09T09:03:39;103417.88;;;22.52;100.00
77626;BME280;66794;43.764;10.436;2023-10-09T09:06:24;103402.25;;;22.60;100.00
77626;BME280;66794;43.764;10.436;2023-10-09T09:09:11;103347.28;;;22.65;100.00
77626;BME280;66794;43.764;10.436;2023-10-09T09:12:00;103360.22;;;22.64;100.00
77626;BME280;66794;43.764;10.436;2023-10-09T09:14:46;103341.13;;;22.84;100.00
77626;BME280;66794;43.764;10.436;2023-10-09T09:17:36;103356.88;;;22.69;100.00
77626;BME280;66794;43.764;10.436;2023-10-09T09:20:26;103341.72;;;22.79;100.00
77626;BME280;66794;43.764;10.436;2023-10-09T09:23:17;103346.75;;;22.91;100.00
77626;BME280;66794;43.764;10.436;2023-10-09T09:26:09;103346.38;;;23.36;100.00
77626;BME280;66794;43.764;10.436;2023-10-09T09:28:57;103272.03;;;23.27;100.00
77626;BME280;66794;43.764;10.436;2023-10-09T09:31:53;103292.56;;;23.39;100.00
77626;BME280;66794;43.764;10.436;2023-10-09T09:37:35;103199.22;;;23.13;100.00
77626;BME280;66794;43.764;10.436;2023-10-09T09:40:31;103239.44;;;23.44;100.00
77626;BME280;66794;43.764;10.436;2023-10-09T09:43:17;103253.44;;;23.70;100.00
77626;BME280;66794;43.764;10.436;2023-10-09T09:46:10;103216.19;;;23.66;100.00
77626;BME280;66794;43.764;10.436;2023-10-09T09:49:02;103207.38;;;23.91;100.00
77626;BME280;66794;43.764;10.436;2023-10-09T09:51:48;103182.53;;;23.63;100.00
77626;BME280;66794;43.764;10.436;2023-10-09T09:54:34;103169.91;;;23.88;100.00
77626;BME280;66794;43.764;10.436;2023-10-09T09:57:23;103173.00;;;24.26;100.00
77626;BME280;66794;43.764;10.436;2023-10-09T10:00:12;103141.00;;;24.04;100.00
77626;BME280;66794;43.764;10.436;2023-10-09T10:03:31;103156.69;;;23.90;100.00
77626;BME280;66794;43.764;10.436;2023-10-09T10:06:20;103144.00;;;24.09;100.00
77626;BME280;66794;43.764;10.436;2023-10-09T10:09:07;103110.81;;;24.29;100.00
77626;BME280;66794;43.764;10.436;2023-10-09T10:11:52;103107.63;;;24.25;100.00
77626;BME280;66794;43.764;10.436;2023-10-09T10:14:52;103108.94;;;24.62;100.00
77626;BME280;66794;43.764;10.436;2023-10-09T10:21:10;103056.09;;;24.64;100.00
77626;BME280;66794;43.764;10.436;2023-10-09T10:24:02;103080.34;;;25.02;100.00
77626;BME280;66794;43.764;10.436;2023-10-09T10:32:56;103025.13;;;25.07;100.00
77626;BME280;66794;43.764;10.436;2023-10-09T10:35:43;102993.13;;;24.98;100.00
77626;BME280;66794;43.764;10.436;2023-10-09T10:38:33;102986.50;;;25.12;100.00
77626;BME280;66794;43.764;10.436;2023-10-09T10:41:22;102975.44;;;24.92;100.00
77626;BME280;66794;43.764;10.436;2023-10-09T10:44:08;102961.47;;;25.25;100.00
77626;BME280;66794;43.764;10.436;2023-10-09T10:47:13;102960.16;;;25.34;100.00
77626;BME280;66794;43.764;10.436;2023-10-09T10:50:08;102959.28;;;25.40;100.00
77626;BME280;66794;43.764;10.436;2023-10-09T10:53:17;102918.50;;;25.73;100.00
77626;BME280;66794;43.764;10.436;2023-10-09T10:56:04;102914.13;;;25.90;100.00
77626;BME280;66794;43.764;10.436;2023-10-09T10:59:13;102909.66;;;25.57;100.00
77626;BME280;66794;43.764;10.436;2023-10-09T11:01:59;102905.13;;;25.31;100.00
77626;BME280;66794;43.764;10.436;2023-10-09T11:04:48;102829.28;;;25.69;100.00
77626;BME280;66794;43.764;10.436;2023-10-09T11:07:59;102797.13;;;25.86;100.00
77626;BME280;66794;43.764;10.436;2023-10-09T11:10:46;102775.94;;;26.47;100.00
77626;BME280;66794;43.764;10.436;2023-10-09T11:13:39;102774.78;;;26.00;100.00
77626;BME280;66794;43.764;10.436;2023-10-09T11:16:38;102741.44;;;25.81;100.00
77626;BME280;66794;43.764;10.436;2023-10-09T11:19:35;102724.81;;;26.00;100.00
77626;BME280;66794;43.764;10.436;2023-10-09T11:22:25;102674.34;;;26.03;100.00
77626;BME280;66794;43.764;10.436;2023-10-09T11:25:14;102659.78;;;25.52;100.00
77626;BME280;66794;43.764;10.436;2023-10-09T11:31:36;102555.56;;;25.38;100.00
77626;BME280;66794;43.764;10.436;2023-10-09T11:34:23;102545.03;;;25.95;100.00
77626;BME280;66794;43.764;10.436;2023-10-09T11:37:17;102572.75;;;26.43;100.00
77626;BME280;66794;43.764;10.436;2023-10-09T11:43:20;102535.69;;;26.19;100.00
77626;BME280;66794;43.764;10.436;2023-10-09T11:46:24;102492.72;;;26.22;100.00
77626;BME280;66794;43.764;10.436;2023-10-09T11:49:30;102510.50;;;25.42;100.00
77626;BME280;66794;43.764;10.436;2023-10-09T11:52:27;102538.31;;;26.03;100.00
77626;BME280;66794;43.764;10.436;2023-10-09T11:55:31;102519.47;;;26.46;100.00
77626;BME280;66794;43.764;10.436;2023-10-09T11:58:19;102527.59;;;26.71;100.00
77626;BME280;66794;43.764;10.436;2023-10-09T12:01:12;102529.69;;;26.34;100.00
77626;BME280;66794;43.764;10.436;2023-10-09T12:04:08;102498.03;;;26.12;100.00
77626;BME280;66794;43.764;10.436;2023-10-09T12:06:54;102524.06;;;25.99;100.00
77626;BME280;66794;43.764;10.436;2023-10-09T12:09:51;102530.19;;;25.71;100.00
77626;BME280;66794;43.764;10.436;2023-10-09T12:12:41;102532.75;;;26.03;100.00
77626;BME280;66794;43.764;10.436;2023-10-09T12:15:32;102508.44;;;25.20;100.00
77626;BME280;66794;43.764;10.436;2023-10-09T12:18:24;102512.09;;;25.99;100.00
77626;BME280;66794;43.764;10.436;2023-10-09T12:21:10;102498.84;;;26.12;100.00
77626;BME280;66794;43.764;10.436;2023-10-09T12:24:01;102514.69;;;25.82;100.00
77626;BME280;66794;43.764;10.436;2023-10-09T12:26:46;102552.34;;;25.41;100.00
77626;BME280;66794;43.764;10.436;2023-10-09T12:29:33;102519.78;;;25.85;100.00
77626;BME280;66794;43.764;10.436;2023-10-09T12:32:19;102531.00;;;25.41;100.00
77626;BME280;66794;43.764;10.436;2023-10-09T12:35:06;102522.88;;;25.28;100.00
77626;BME280;66794;43.764;10.436;2023-10-09T12:38:03;102512.50;;;26.14;100.00
77626;BME280;66794;43.764;10.436;2023-10-09T12:41:06;102489.50;;;25.65;100.00
77626;BME280;66794;43.764;10.436;2023-10-09T12:44:24;102519.66;;;25.43;100.00
77626;BME280;66794;43.764;10.436;2023-10-09T12:47:12;102502.22;;;25.24;100.00
77626;BME280;66794;43.764;10.436;2023-10-09T12:49:58;102504.78;;;25.74;100.00
77626;BME280;66794;43.764;10.436;2023-10-09T12:52:44;102514.22;;;25.85;100.00
77626;BME280;66794;43.764;10.436;2023-10-09T12:55:37;102523.59;;;26.14;100.00
77626;BME280;66794;43.764;10.436;2023-10-09T12:58:26;102509.81;;;25.95;100.00
77626;BME280;66794;43.764;10.436;2023-10-09T13:01:12;102532.53;;;26.46;100.00
77626;BME280;66794;43.764;10.436;2023-10-09T13:03:59;102513.41;;;25.96;100.00
77626;BME280;66794;43.764;10.436;2023-10-09T13:06:57;102497.88;;;25.47;100.00
77626;BME280;66794;43.764;10.436;2023-10-09T13:09:48;102465.56;;;25.82;100.00
77626;BME280;66794;43.764;10.436;2023-10-09T13:12:53;102500.38;;;26.73;100.00
77626;BME280;66794;43.764;10.436;2023-10-09T13:15:41;102519.19;;;25.83;100.00
77626;BME280;66794;43.764;10.436;2023-10-09T13:18:28;102500.94;;;25.87;100.00
77626;BME280;66794;43.764;10.436;2023-10-09T13:21:14;102508.31;;;25.63;100.00
77626;BME280;66794;43.764;10.436;2023-10-09T13:24:00;102538.66;;;25.94;100.00
77626;BME280;66794;43.764;10.436;2023-10-09T13:26:48;102511.06;;;26.11;100.00
77626;BME280;66794;43.764;10.436;2023-10-09T13:29:37;102508.19;;;26.30;100.00
77626;BME280;66794;43.764;10.436;2023-10-09T13:32:25;102496.53;;;26.51;100.00
77626;BME280;66794;43.764;10.436;2023-10-09T13:35:11;102489.28;;;26.50;100.00
77626;BME280;66794;43.764;10.436;2023-10-09T13:37:59;102450.50;;;26.67;100.00
77626;BME280;66794;43.764;10.436;2023-10-09T13:40:45;102498.44;;;26.97;100.00
77626;BME280;66794;43.764;10.436;2023-10-09T13:43:30;102437.56;;;26.61;100.00
77626;BME280;66794;43.764;10.436;2023-10-09T13:46:16;102486.00;;;26.41;100.00
77626;BME280;66794;43.764;10.436;2023-10-09T13:49:03;102471.41;;;27.33;100.00
77626;BME280;66794;43.764;10.436;2023-10-09T13:51:49;102503.84;;;26.34;100.00
77626;BME280;66794;43.764;10.436;2023-10-09T13:54:35;102478.59;;;26.23;100.00
77626;BME280;66794;43.764;10.436;2023-10-09T13:57:21;102499.69;;;26.01;100.00
77626;BME280;66794;43.764;10.436;2023-10-09T14:00:16;102541.44;;;25.94;100.00
77626;BME280;66794;43.764;10.436;2023-10-09T14:03:18;102543.31;;;25.64;100.00
77626;BME280;66794;43.764;10.436;2023-10-09T14:06:08;102545.94;;;25.77;100.00
77626;BME280;66794;43.764;10.436;2023-10-09T14:09:03;102508.19;;;26.30;100.00
77626;BME280;66794;43.764;10.436;2023-10-09T14:11:55;102545.53;;;26.04;100.00
77626;BME280;66794;43.764;10.436;2023-10-09T14:14:51;102494.97;;;26.67;100.00
77626;BME280;66794;43.764;10.436;2023-10-09T14:17:39;102499.63;;;27.25;100.00
77626;BME280;66794;43.764;10.436;2023-10-09T14:20:27;102465.22;;;26.67;100.00
77626;BME280;66794;43.764;10.436;2023-10-09T14:23:17;102486.13;;;27.45;100.00
77626;BME280;66794;43.764;10.436;2023-10-09T14:26:06;102468.50;;;26.76;100.00
77626;BME280;66794;43.764;10.436;2023-10-09T14:28:55;102493.69;;;25.74;100.00
77626;BME280;66794;43.764;10.436;2023-10-09T14:31:43;102497.84;;;26.84;100.00
77626;BME280;66794;43.764;10.436;2023-10-09T14:34:29;102497.84;;;26.95;100.00
77626;BME280;66794;43.764;10.436;2023-10-09T14:37:20;102479.84;;;26.98;100.00
77626;BME280;66794;43.764;10.436;2023-10-09T14:40:07;102460.53;;;26.44;100.00
77626;BME280;66794;43.764;10.436;2023-10-09T14:42:58;102540.22;;;25.72;100.00
77626;BME280;66794;43.764;10.436;2023-10-09T14:45:50;102532.84;;;25.48;100.00
77626;BME280;66794;43.764;10.436;2023-10-09T14:48:39;102525.88;;;25.75;100.00
77626;BME280;66794;43.764;10.436;2023-10-09T14:51:25;102533.75;;;26.73;100.00
77626;BME280;66794;43.764;10.436;2023-10-09T14:54:15;102530.13;;;26.61;100.00
77626;BME280;66794;43.764;10.436;2023-10-09T14:57:04;102530.66;;;26.40;100.00